Time;durP1;ratioP1;P1;durP2;ratioP2;P2;SDS_P1;SDS_P2;PMS_P1;PMS_P2;Temp;Humidity;BMP_temperature;BMP_pressure;BME280_temperature;BME280_humidity;BME280_pressure;Samples;Min_cycle;Max_cycle;Signal;HPM_P1;HPM_P2
2023/09/15 00:01:37;;;;;;;;;;;14.00;99.90;;;;;;5088025;28;19920;-62
2023/09/15 00:04:05;;;;;;;;;;;14.00;99.90;;;;;;5077966;28;19963;-62
2023/09/15 00:06:32;;;;;;;;;;;14.10;99.90;;;;;;5091733;28;20294;-62
2023/09/15 00:08:57;;;;;;;;;;;14.10;99.90;;;;;;5091629;28;19920;-62
2023/09/15 00:11:23;;;;;;;;;;;14.00;99.90;;;;;;5091670;28;19943;-62
2023/09/15 00:13:48;;;;;;;;;;;14.00;99.90;;;;;;5073559;28;20313;-62
2023/09/15 00:16:14;;;;;;;;;;;14.00;99.90;;;;;;5093156;28;19920;-62
2023/09/15 00:18:41;;;;;;;;;;;14.00;99.90;;;;;;5095196;28;20289;-62
2023/09/15 00:21:09;;;;;;;;;;;13.90;99.90;;;;;;5095578;28;19920;-62
2023/09/15 00:23:37;;;;;;;;;;;13.90;99.90;;;;;;5095353;28;19959;-62
2023/09/15 00:26:03;;;;;;;;;;;13.90;99.90;;;;;;5077121;28;19920;-62
2023/09/15 00:28:29;;;;;;;;;;;13.90;99.90;;;;;;5095242;28;20368;-62
2023/09/15 00:30:55;;;;;;;;;;;13.80;99.90;;;;;;5095365;28;19952;-63
2023/09/15 00:33:21;;;;;;;;;;;13.80;99.90;;;;;;5095277;28;19971;-62
2023/09/15 00:35:47;;;;;;;;;;;13.80;99.90;;;;;;5079591;28;19972;-61
2023/09/15 00:38:13;;;;;;;;;;;13.80;99.90;;;;;;5081543;28;19977;-62
2023/09/15 00:40:39;;;;;;;;;;;13.70;99.90;;;;;;5074555;28;19924;-62
2023/09/15 00:43:05;;;;;;;;;;;13.70;99.90;;;;;;5075007;28;20359;-62
2023/09/15 00:45:31;;;;;;;;;;;13.80;99.90;;;;;;5074526;28;19978;-62
2023/09/15 00:47:57;;;;;;;;;;;13.70;99.90;;;;;;5075124;28;19924;-62
2023/09/15 00:50:28;;;;;;;;;;;13.80;99.90;;;;;;5074570;28;19991;-62
2023/09/15 00:53:04;;;;;;;;;;;13.70;99.90;;;;;;5074529;28;19931;-64
2023/09/15 00:55:32;;;;;;;;;;;13.70;99.90;;;;;;5074312;28;20375;-62
2023/09/15 00:58:01;;;;;;;;;;;13.70;99.90;;;;;;5074356;28;19982;-61
2023/09/15 01:00:28;;;;;;;;;;;13.70;99.90;;;;;;5074331;28;20439;-61
2023/09/15 01:02:53;;;;;;;;;;;13.60;99.90;;;;;;5074448;28;19920;-62
2023/09/15 01:05:22;;;;;;;;;;;13.60;99.90;;;;;;5074271;28;19930;-62
2023/09/15 01:07:52;;;;;;;;;;;13.60;99.90;;;;;;5084303;28;20011;-62
2023/09/15 01:10:19;;;;;;;;;;;13.60;99.90;;;;;;5080187;28;19927;-63
2023/09/15 01:12:45;;;;;;;;;;;13.50;99.90;;;;;;5075411;28;20442;-61
2023/09/15 01:15:14;;;;;;;;;;;13.50;99.90;;;;;;5094530;28;19959;-62
2023/09/15 01:17:46;;;;;;;;;;;13.50;99.90;;;;;;5094506;28;19924;-62
2023/09/15 01:20:13;;;;;;;;;;;13.50;99.90;;;;;;5049367;28;19920;-62
2023/09/15 01:22:54;;;;;;;;;;;13.40;99.90;;;;;;5094146;28;19928;-61
2023/09/15 01:25:34;;;;;;;;;;;13.40;99.90;;;;;;5094400;28;19924;-62
2023/09/15 01:28:06;;;;;;;;;;;13.40;99.90;;;;;;5093672;28;19920;-62
2023/09/15 01:30:32;;;;;;;;;;;13.40;99.90;;;;;;5094032;28;20399;-61
2023/09/15 01:32:58;;;;;;;;;;;13.30;99.90;;;;;;5094002;28;19927;-62
2023/09/15 01:35:24;;;;;;;;;;;13.30;99.90;;;;;;5093780;28;19924;-62
2023/09/15 01:37:49;;;;;;;;;;;13.20;99.90;;;;;;5094055;28;19928;-63
2023/09/15 01:40:15;;;;;;;;;;;13.30;99.90;;;;;;5093896;28;20385;-62
2023/09/15 01:42:42;;;;;;;;;;;13.30;99.90;;;;;;5093867;28;20277;-63
2023/09/15 01:45:07;;;;;;;;;;;13.20;99.90;;;;;;5055740;28;19925;-63
2023/09/15 01:47:34;;;;;;;;;;;13.20;99.90;;;;;;5073481;28;20367;-61
2023/09/15 01:50:00;;;;;;;;;;;13.20;99.90;;;;;;5073509;28;19930;-61
2023/09/15 01:52:26;;;;;;;;;;;13.20;99.90;;;;;;5073252;28;19921;-61
2023/09/15 01:54:53;;;;;;;;;;;13.20;99.90;;;;;;5073196;28;19927;-62
2023/09/15 01:57:19;;;;;;;;;;;13.20;99.90;;;;;;5055439;28;20298;-61
2023/09/15 01:59:44;;;;;;;;;;;13.10;99.90;;;;;;5073314;28;19924;-62
2023/09/15 02:02:10;;;;;;;;;;;13.10;99.90;;;;;;5073279;28;19920;-62
2023/09/15 02:04:37;;;;;;;;;;;13.10;99.90;;;;;;5073263;28;19947;-62
2023/09/15 02:07:03;;;;;;;;;;;13.10;99.90;;;;;;5073250;28;20334;-62
2023/09/15 02:09:28;;;;;;;;;;;13.10;99.90;;;;;;5073686;28;19968;-62
2023/09/15 02:11:54;;;;;;;;;;;13.10;99.90;;;;;;5073040;28;19921;-62
2023/09/15 02:14:19;;;;;;;;;;;13.00;99.90;;;;;;5072866;28;19943;-62
2023/09/15 02:16:45;;;;;;;;;;;13.00;99.90;;;;;;5072928;28;19921;-61
2023/09/15 02:19:10;;;;;;;;;;;12.90;99.90;;;;;;5058654;28;19978;-62
2023/09/15 02:21:36;;;;;;;;;;;12.90;99.90;;;;;;5054816;28;19926;-62
2023/09/15 02:24:02;;;;;;;;;;;12.90;99.90;;;;;;5072635;28;20007;-62
2023/09/15 02:26:28;;;;;;;;;;;12.90;99.90;;;;;;5072880;28;19920;-62
2023/09/15 02:28:53;;;;;;;;;;;12.80;99.90;;;;;;5072567;28;19921;-62
2023/09/15 02:31:19;;;;;;;;;;;12.80;99.90;;;;;;5072569;28;19925;-61
2023/09/15 02:33:45;;;;;;;;;;;12.80;99.90;;;;;;5072446;28;20362;-62
2023/09/15 02:36:11;;;;;;;;;;;12.80;99.90;;;;;;5072626;28;20393;-62
2023/09/15 02:38:36;;;;;;;;;;;12.70;99.90;;;;;;5071741;28;19925;-61
2023/09/15 02:41:02;;;;;;;;;;;12.70;99.90;;;;;;5072433;28;20259;-61
2023/09/15 02:43:27;;;;;;;;;;;12.80;99.90;;;;;;5072680;28;20072;-61
2023/09/15 02:45:53;;;;;;;;;;;12.80;99.90;;;;;;5054589;28;19999;-62
2023/09/15 02:48:18;;;;;;;;;;;12.70;99.90;;;;;;5072283;28;20078;-62
2023/09/15 02:50:45;;;;;;;;;;;12.80;99.90;;;;;;5072675;28;19921;-62
2023/09/15 02:53:11;;;;;;;;;;;12.80;99.90;;;;;;5072262;28;20271;-62
2023/09/15 02:55:37;;;;;;;;;;;12.80;99.90;;;;;;5072261;28;19920;-61
2023/09/15 02:58:03;;;;;;;;;;;12.70;99.90;;;;;;5072092;28;19932;-61
2023/09/15 03:00:30;;;;;;;;;;;12.80;99.90;;;;;;5072065;28;19925;-62
2023/09/15 03:02:56;;;;;;;;;;;12.80;99.90;;;;;;5072484;28;20319;-61
2023/09/15 03:05:22;;;;;;;;;;;12.80;99.90;;;;;;5053664;28;19920;-62
2023/09/15 03:07:47;;;;;;;;;;;12.80;99.90;;;;;;5072133;28;20314;-61
2023/09/15 03:10:13;;;;;;;;;;;12.70;99.90;;;;;;5071854;28;19920;-62
2023/09/15 03:12:39;;;;;;;;;;;12.70;99.90;;;;;;5037416;28;19979;-61
2023/09/15 03:15:08;;;;;;;;;;;12.70;99.90;;;;;;5071883;28;19920;-62
2023/09/15 03:17:34;;;;;;;;;;;12.70;99.90;;;;;;5072039;28;19931;-61
2023/09/15 03:20:00;;;;;;;;;;;12.70;99.90;;;;;;5071975;28;19924;-62
2023/09/15 03:22:27;;;;;;;;;;;12.70;99.90;;;;;;5071746;28;20367;-61
2023/09/15 03:24:54;;;;;;;;;;;12.60;99.90;;;;;;5072105;28;20299;-61
2023/09/15 03:27:20;;;;;;;;;;;12.60;99.90;;;;;;5071817;28;19924;-61
2023/09/15 03:29:46;;;;;;;;;;;12.60;99.90;;;;;;5071875;28;19966;-61
2023/09/15 03:32:11;;;;;;;;;;;12.60;99.90;;;;;;5071699;28;19974;-61
2023/09/15 03:34:38;;;;;;;;;;;12.60;99.90;;;;;;5072007;28;19927;-61
2023/09/15 03:37:04;;;;;;;;;;;12.50;99.90;;;;;;5071750;28;19927;-61
2023/09/15 03:39:29;;;;;;;;;;;12.50;99.90;;;;;;5071719;28;19972;-61
2023/09/15 03:41:55;;;;;;;;;;;12.40;99.90;;;;;;5053869;28;19960;-60
2023/09/15 03:44:22;;;;;;;;;;;12.40;99.90;;;;;;5071784;28;19936;-61
2023/09/15 03:46:48;;;;;;;;;;;12.30;99.90;;;;;;5071532;28;19932;-62
2023/09/15 03:49:13;;;;;;;;;;;12.30;99.90;;;;;;5054184;28;19924;-62
2023/09/15 03:51:39;;;;;;;;;;;12.30;99.90;;;;;;5075812;28;20046;-62
2023/09/15 03:54:04;;;;;;;;;;;12.30;99.90;;;;;;5075763;28;20370;-61
2023/09/15 03:56:31;;;;;;;;;;;12.20;99.90;;;;;;5075288;28;20397;-62
2023/09/15 03:58:58;;;;;;;;;;;12.30;99.90;;;;;;5075488;28;19993;-61
2023/09/15 04:01:24;;;;;;;;;;;12.20;99.90;;;;;;5075513;28;20418;-61
2023/09/15 04:03:49;;;;;;;;;;;12.20;99.90;;;;;;5075545;28;20043;-61
2023/09/15 04:06:16;;;;;;;;;;;12.20;99.90;;;;;;5057312;28;20007;-63
2023/09/15 04:08:42;;;;;;;;;;;12.30;99.90;;;;;;5075255;28;19989;-62
2023/09/15 04:11:07;;;;;;;;;;;12.30;99.90;;;;;;5075364;28;20354;-61
2023/09/15 04:13:33;;;;;;;;;;;12.20;99.90;;;;;;5074987;28;19928;-61
2023/09/15 04:16:00;;;;;;;;;;;12.20;99.90;;;;;;5075333;28;20019;-61
2023/09/15 04:18:26;;;;;;;;;;;12.10;99.90;;;;;;5075094;28;20374;-61
2023/09/15 04:20:51;;;;;;;;;;;12.20;99.90;;;;;;5075158;28;19973;-61
2023/09/15 04:23:17;;;;;;;;;;;12.20;99.90;;;;;;5075052;28;19927;-61
2023/09/15 04:25:43;;;;;;;;;;;12.10;99.90;;;;;;5074836;28;19982;-61
2023/09/15 04:28:08;;;;;;;;;;;12.10;99.90;;;;;;5075043;28;19921;-62
2023/09/15 04:30:34;;;;;;;;;;;12.00;99.90;;;;;;5074977;28;19924;-63
2023/09/15 04:32:59;;;;;;;;;;;12.10;99.90;;;;;;5075262;28;20031;-62
2023/09/15 04:35:25;;;;;;;;;;;12.00;99.90;;;;;;5075140;28;19925;-62
2023/09/15 04:37:51;;;;;;;;;;;12.00;99.90;;;;;;5074727;28;20359;-61
2023/09/15 04:40:16;;;;;;;;;;;12.00;99.90;;;;;;5074802;28;19920;-62
2023/09/15 04:42:42;;;;;;;;;;;11.90;99.90;;;;;;5074565;28;20389;-61
2023/09/15 04:45:07;;;;;;;;;;;11.90;99.90;;;;;;5074444;28;19924;-61
2023/09/15 04:47:34;;;;;;;;;;;12.00;99.90;;;;;;5074600;28;20350;-63
2023/09/15 04:50:00;;;;;;;;;;;11.90;99.90;;;;;;5056671;28;19921;-62
2023/09/15 04:52:26;;;;;;;;;;;11.90;99.90;;;;;;5074673;28;19927;-62
2023/09/15 04:54:52;;;;;;;;;;;11.90;99.90;;;;;;5056995;28;19928;-62
2023/09/15 04:57:18;;;;;;;;;;;11.80;99.90;;;;;;5074364;28;20011;-62
2023/09/15 04:59:46;;;;;;;;;;;11.80;99.90;;;;;;5074480;28;19920;-61
2023/09/15 05:02:11;;;;;;;;;;;11.80;99.90;;;;;;5073714;28;19921;-62
2023/09/15 05:04:37;;;;;;;;;;;11.80;99.90;;;;;;5074566;28;20432;-62
2023/09/15 05:07:03;;;;;;;;;;;11.80;99.90;;;;;;5074287;28;20305;-62
2023/09/15 05:09:29;;;;;;;;;;;11.70;99.90;;;;;;5074296;28;19927;-61
2023/09/15 05:11:55;;;;;;;;;;;11.70;99.90;;;;;;5074025;28;20267;-62
2023/09/15 05:14:20;;;;;;;;;;;11.70;99.90;;;;;;5055840;28;19928;-61
2023/09/15 05:16:46;;;;;;;;;;;11.70;99.90;;;;;;5074103;28;19921;-62
2023/09/15 05:19:11;;;;;;;;;;;11.70;99.90;;;;;;5074319;28;20391;-61
2023/09/15 05:21:37;;;;;;;;;;;11.70;99.90;;;;;;5074331;28;20812;-62
2023/09/15 05:24:02;;;;;;;;;;;11.70;99.90;;;;;;5073907;28;20481;-62
2023/09/15 05:26:28;;;;;;;;;;;11.70;99.90;;;;;;5073899;28;19920;-61
2023/09/15 05:28:54;;;;;;;;;;;11.70;99.90;;;;;;5073604;28;19921;-61
2023/09/15 05:31:25;;;;;;;;;;;11.70;99.90;;;;;;5074129;28;19924;-62
2023/09/15 05:33:57;;;;;;;;;;;11.70;99.90;;;;;;5073867;28;19920;-62
2023/09/15 05:36:23;;;;;;;;;;;11.70;99.90;;;;;;5073814;28;19928;-61
2023/09/15 05:38:49;;;;;;;;;;;11.70;99.90;;;;;;5073597;28;19929;-61
2023/09/15 05:41:15;;;;;;;;;;;11.70;99.90;;;;;;5073423;28;19924;-61
2023/09/15 05:43:40;;;;;;;;;;;11.80;99.90;;;;;;5073861;28;19925;-61
2023/09/15 05:46:06;;;;;;;;;;;11.90;99.90;;;;;;5073461;28;19925;-62
2023/09/15 05:48:32;;;;;;;;;;;12.00;99.90;;;;;;5073349;28;19920;-61
2023/09/15 05:50:57;;;;;;;;;;;12.10;99.90;;;;;;5073469;28;20375;-62
2023/09/15 05:53:23;;;;;;;;;;;12.10;99.90;;;;;;5073258;28;19927;-61
2023/09/15 05:55:49;;;;;;;;;;;12.20;99.90;;;;;;5073244;28;20310;-61
2023/09/15 05:58:14;;;;;;;;;;;12.30;99.90;;;;;;5075246;28;19924;-62
2023/09/15 06:00:41;;;;;;;;;;;12.40;99.90;;;;;;5093552;28;19997;-62
2023/09/15 06:03:07;;;;;;;;;;;12.60;99.90;;;;;;5084182;28;19921;-61
2023/09/15 06:05:33;;;;;;;;;;;12.60;99.90;;;;;;5093374;28;20022;-62
2023/09/15 06:07:59;;;;;;;;;;;12.70;99.90;;;;;;5066251;28;19966;-62
2023/09/15 06:10:24;;;;;;;;;;;12.70;99.90;;;;;;5089498;28;19966;-61
2023/09/15 06:12:50;;;;;;;;;;;12.80;99.90;;;;;;5093047;28;19960;-61
2023/09/15 06:15:16;;;;;;;;;;;12.90;99.90;;;;;;5093152;28;19920;-61
2023/09/15 06:17:41;;;;;;;;;;;13.00;99.90;;;;;;5093026;28;19924;-62
2023/09/15 06:20:07;;;;;;;;;;;13.10;99.90;;;;;;5093160;28;19920;-62
2023/09/15 06:22:33;;;;;;;;;;;13.30;99.90;;;;;;5093173;28;19931;-61
2023/09/15 06:24:58;;;;;;;;;;;13.60;99.90;;;;;;5086843;28;20461;-61
2023/09/15 06:27:24;;;;;;;;;;;13.80;99.90;;;;;;5088417;28;19967;-61
2023/09/15 06:29:51;;;;;;;;;;;14.20;99.90;;;;;;5093133;28;19931;-61
2023/09/15 06:32:18;;;;;;;;;;;14.40;99.90;;;;;;5088674;28;20387;-62
2023/09/15 06:34:43;;;;;;;;;;;14.70;99.90;;;;;;5092774;28;19921;-61
2023/09/15 06:37:09;;;;;;;;;;;14.90;99.90;;;;;;5091085;28;20439;-61
2023/09/15 06:39:36;;;;;;;;;;;15.10;99.90;;;;;;5092533;28;19973;-61
2023/09/15 06:42:04;;;;;;;;;;;15.40;99.90;;;;;;5092661;28;19928;-61
2023/09/15 06:44:34;;;;;;;;;;;15.60;99.90;;;;;;5077905;28;19963;-61
2023/09/15 06:46:59;;;;;;;;;;;15.90;99.90;;;;;;5063476;28;20010;-61
2023/09/15 06:49:25;;;;;;;;;;;16.10;99.90;;;;;;5070317;28;20019;-61
2023/09/15 06:51:51;;;;;;;;;;;16.40;99.90;;;;;;5071702;28;19921;-61
2023/09/15 06:54:16;;;;;;;;;;;16.60;99.90;;;;;;5072288;28;19928;-63
2023/09/15 06:56:42;;;;;;;;;;;17.00;99.90;;;;;;5071352;28;19921;-62
2023/09/15 06:59:07;;;;;;;;;;;17.30;99.90;;;;;;5072083;28;20066;-61
2023/09/15 07:01:33;;;;;;;;;;;17.70;99.90;;;;;;5053494;28;19967;-62
2023/09/15 07:03:58;;;;;;;;;;;17.70;99.90;;;;;;5084144;28;19924;-62
2023/09/15 07:06:24;;;;;;;;;;;18.00;99.90;;;;;;5087519;28;20285;-62
2023/09/15 07:08:49;;;;;;;;;;;18.30;99.90;;;;;;5087732;28;20392;-62
2023/09/15 07:11:15;;;;;;;;;;;18.60;99.90;;;;;;5090219;28;20007;-61
2023/09/15 07:13:41;;;;;;;;;;;19.00;99.90;;;;;;5068614;28;19924;-62
2023/09/15 07:16:06;;;;;;;;;;;19.30;99.90;;;;;;5071231;28;20389;-62
2023/09/15 07:18:32;;;;;;;;;;;19.60;99.90;;;;;;5062893;28;19968;-63
2023/09/15 07:20:58;;;;;;;;;;;19.70;99.90;;;;;;5051676;28;19947;-61
2023/09/15 07:23:23;;;;;;;;;;;20.00;99.90;;;;;;5071859;28;20374;-62
2023/09/15 07:25:49;;;;;;;;;;;20.00;99.90;;;;;;5071508;28;19931;-62
2023/09/15 07:28:15;;;;;;;;;;;20.50;99.90;;;;;;5072085;28;19920;-62
2023/09/15 07:30:41;;;;;;;;;;;20.90;99.90;;;;;;5071880;28;19978;-62
2023/09/15 07:33:08;;;;;;;;;;;20.90;99.90;;;;;;5072121;28;19920;-62
2023/09/15 07:35:35;;;;;;;;;;;21.30;99.90;;;;;;5071494;28;19924;-62
2023/09/15 07:38:04;;;;;;;;;;;21.40;99.90;;;;;;5072049;28;19978;-61
2023/09/15 07:40:30;;;;;;;;;;;21.70;99.90;;;;;;5071921;28;19952;-62
2023/09/15 07:42:56;;;;;;;;;;;21.90;99.90;;;;;;5072289;28;19920;-63
2023/09/15 07:45:21;;;;;;;;;;;21.80;99.90;;;;;;5072047;28;19922;-63
2023/09/15 07:47:47;;;;;;;;;;;22.20;99.90;;;;;;5072000;28;20424;-61
2023/09/15 07:50:20;;;;;;;;;;;22.10;99.90;;;;;;5071904;28;20271;-62
2023/09/15 07:52:45;;;;;;;;;;;22.50;99.90;;;;;;5072185;28;19927;-62
2023/09/15 07:55:11;;;;;;;;;;;22.60;99.90;;;;;;5072045;28;20003;-63
2023/09/15 07:57:38;;;;;;;;;;;22.90;99.90;;;;;;5071924;28;19928;-63
2023/09/15 08:00:06;;;;;;;;;;;23.00;99.90;;;;;;5071849;28;20383;-64
2023/09/15 08:02:32;;;;;;;;;;;23.20;99.90;;;;;;5074477;28;19921;-64
2023/09/15 08:04:57;;;;;;;;;;;23.20;99.90;;;;;;5089661;28;19924;-63
2023/09/15 08:07:23;;;;;;;;;;;23.30;99.90;;;;;;5092161;28;19920;-63
2023/09/15 08:09:48;;;;;;;;;;;23.50;99.90;;;;;;5092090;28;19931;-62
2023/09/15 08:12:18;;;;;;;;;;;23.50;99.90;;;;;;5092275;28;19999;-62
2023/09/15 08:14:44;;;;;;;;;;;23.70;99.90;;;;;;5091914;28;19920;-62
2023/09/15 08:17:09;;;;;;;;;;;23.60;99.90;;;;;;5091827;28;19928;-62
2023/09/15 08:19:35;;;;;;;;;;;23.80;99.90;;;;;;5091778;28;19924;-63
2023/09/15 08:22:01;;;;;;;;;;;24.30;99.90;;;;;;5092113;28;20311;-62
2023/09/15 08:24:26;;;;;;;;;;;24.50;99.90;;;;;;5092030;28;20010;-61
2023/09/15 08:26:52;;;;;;;;;;;25.00;99.90;;;;;;5091665;28;20397;-62
2023/09/15 08:29:18;;;;;;;;;;;25.40;99.90;;;;;;5090536;28;19924;-61
2023/09/15 08:31:43;;;;;;;;;;;25.80;99.90;;;;;;5059812;28;20462;-62
2023/09/15 08:34:09;;;;;;;;;;;26.10;99.90;;;;;;5077644;28;19943;-62
2023/09/15 08:36:35;;;;;;;;;;;25.80;99.90;;;;;;5092483;28;19920;-62
2023/09/15 08:39:00;;;;;;;;;;;26.30;99.40;;;;;;5095401;28;19924;-63
2023/09/15 08:41:31;;;;;;;;;;;26.10;99.90;;;;;;5095301;28;19927;-62
2023/09/15 08:43:57;;;;;;;;;;;26.00;99.90;;;;;;5085509;28;19920;-62
2023/09/15 08:46:25;;;;;;;;;;;25.90;99.90;;;;;;5056718;28;20291;-63
2023/09/15 08:48:51;;;;;;;;;;;26.30;99.20;;;;;;5075064;28;19931;-62
2023/09/15 08:51:17;;;;;;;;;;;26.40;99.90;;;;;;5074911;28;20006;-62
2023/09/15 08:53:43;;;;;;;;;;;26.50;99.90;;;;;;5074816;28;19970;-62
2023/09/15 08:56:09;;;;;;;;;;;26.00;99.00;;;;;;5057594;28;19920;-62
2023/09/15 08:58:35;;;;;;;;;;;25.40;99.80;;;;;;5074433;28;20011;-63
2023/09/15 09:01:01;;;;;;;;;;;25.80;99.90;;;;;;5074892;28;19967;-63
2023/09/15 09:03:27;;;;;;;;;;;26.10;99.90;;;;;;5074760;28;20274;-62
2023/09/15 09:05:55;;;;;;;;;;;26.00;99.90;;;;;;5074755;28;20019;-63
2023/09/15 09:08:22;;;;;;;;;;;26.30;99.20;;;;;;5074331;28;19966;-62
2023/09/15 09:10:48;;;;;;;;;;;26.70;99.10;;;;;;5074545;28;19927;-62
2023/09/15 09:13:20;;;;;;;;;;;27.10;99.00;;;;;;5074451;28;20351;-62
2023/09/15 09:15:46;;;;;;;;;;;27.00;99.20;;;;;;5073958;28;19927;-62
2023/09/15 09:18:16;;;;;;;;;;;27.30;99.60;;;;;;5074136;28;19925;-63
2023/09/15 09:20:42;;;;;;;;;;;27.40;98.60;;;;;;5086958;28;20377;-63
2023/09/15 09:23:09;;;;;;;;;;;26.70;99.10;;;;;;5077332;28;19920;-62
2023/09/15 09:25:35;;;;;;;;;;;26.90;98.80;;;;;;5094260;28;20019;-62
2023/09/15 09:28:03;;;;;;;;;;;26.90;99.00;;;;;;5093959;28;20355;-62
2023/09/15 09:30:31;;;;;;;;;;;26.50;99.00;;;;;;5094378;28;19981;-63
2023/09/15 09:32:57;;;;;;;;;;;26.40;99.70;;;;;;5081139;28;19921;-62
2023/09/15 09:35:23;;;;;;;;;;;26.00;99.60;;;;;;5094060;28;19973;-62
2023/09/15 09:37:49;;;;;;;;;;;25.60;99.80;;;;;;5081156;28;19928;-63
2023/09/15 09:40:18;;;;;;;;;;;24.90;99.40;;;;;;5093419;28;19927;-62
2023/09/15 09:42:44;;;;;;;;;;;24.40;99.90;;;;;;5093758;28;19963;-62
2023/09/15 09:45:10;;;;;;;;;;;23.80;99.90;;;;;;5069849;28;19923;-63
2023/09/15 09:47:36;;;;;;;;;;;23.70;99.90;;;;;;5075035;28;20008;-63
2023/09/15 09:50:06;;;;;;;;;;;23.60;99.90;;;;;;5093670;28;19920;-62
2023/09/15 09:52:31;;;;;;;;;;;23.40;99.90;;;;;;5093761;28;19970;-62
2023/09/15 09:55:00;;;;;;;;;;;23.40;99.90;;;;;;5094463;28;19960;-62
2023/09/15 09:57:26;;;;;;;;;;;23.30;99.90;;;;;;5095225;28;20007;-63
2023/09/15 09:59:52;;;;;;;;;;;23.20;99.90;;;;;;5095746;28;20420;-62
2023/09/15 10:02:18;;;;;;;;;;;22.90;99.90;;;;;;5085878;28;20378;-63
2023/09/15 10:04:45;;;;;;;;;;;22.90;99.90;;;;;;5093410;28;20374;-62
2023/09/15 10:07:10;;;;;;;;;;;22.80;99.90;;;;;;5084388;28;19944;-62
2023/09/15 10:09:36;;;;;;;;;;;22.60;99.90;;;;;;5092896;28;20378;-62
2023/09/15 10:12:02;;;;;;;;;;;23.00;99.90;;;;;;5093165;28;19931;-62
2023/09/15 10:14:29;;;;;;;;;;;23.00;99.90;;;;;;5093340;28;19967;-64
2023/09/15 10:16:55;;;;;;;;;;;23.30;99.90;;;;;;5075154;28;20382;-62
2023/09/15 10:19:21;;;;;;;;;;;23.20;99.90;;;;;;5093047;28;19924;-64
2023/09/15 10:21:47;;;;;;;;;;;23.50;99.90;;;;;;5093175;28;19920;-63
2023/09/15 10:24:15;;;;;;;;;;;23.80;99.90;;;;;;5074597;28;19927;-64
2023/09/15 10:26:44;;;;;;;;;;;23.80;99.90;;;;;;5075034;28;19920;-62
2023/09/15 10:29:13;;;;;;;;;;;23.90;99.90;;;;;;5076702;28;19959;-62
2023/09/15 10:31:42;;;;;;;;;;;23.70;99.90;;;;;;5091847;28;19981;-62
2023/09/15 10:34:07;;;;;;;;;;;23.70;99.90;;;;;;5092955;28;19920;-61
2023/09/15 10:36:33;;;;;;;;;;;23.70;99.90;;;;;;5092723;28;19973;-62
2023/09/15 10:39:10;;;;;;;;;;;23.70;99.90;;;;;;5092634;28;20348;-62
2023/09/15 10:41:36;;;;;;;;;;;23.50;99.90;;;;;;5093079;28;20360;-63
2023/09/15 10:44:01;;;;;;;;;;;23.30;99.90;;;;;;5082487;28;20396;-62
2023/09/15 10:46:40;;;;;;;;;;;23.20;99.90;;;;;;5072319;28;19924;-63
2023/09/15 10:49:15;;;;;;;;;;;23.00;99.90;;;;;;5072384;28;20440;-62
2023/09/15 10:52:00;;;;;;;;;;;22.90;99.90;;;;;;5072108;28;19932;-62
2023/09/15 10:54:29;;;;;;;;;;;22.80;99.90;;;;;;5072476;28;20011;-62
2023/09/15 10:56:55;;;;;;;;;;;22.70;99.90;;;;;;5072367;28;19928;-62
2023/09/15 10:59:21;;;;;;;;;;;22.70;99.90;;;;;;5088536;28;19924;-62
2023/09/15 11:01:46;;;;;;;;;;;22.60;99.90;;;;;;5092282;28;19927;-63
2023/09/15 11:04:13;;;;;;;;;;;22.60;99.90;;;;;;5092226;28;19927;-63
2023/09/15 11:06:39;;;;;;;;;;;22.90;99.90;;;;;;5092424;28;19920;-62
2023/09/15 11:09:05;;;;;;;;;;;23.10;99.90;;;;;;5092479;28;19959;-62
2023/09/15 11:11:31;;;;;;;;;;;23.30;99.90;;;;;;5091817;28;19924;-62
2023/09/15 11:13:57;;;;;;;;;;;23.80;99.90;;;;;;5092233;28;20015;-63
2023/09/15 11:16:24;;;;;;;;;;;24.10;99.90;;;;;;5092038;28;20010;-62
2023/09/15 11:18:50;;;;;;;;;;;24.20;99.90;;;;;;5092293;28;19951;-63
2023/09/15 11:21:17;;;;;;;;;;;24.30;99.90;;;;;;5091309;28;20082;-63
2023/09/15 11:23:46;;;;;;;;;;;24.40;99.90;;;;;;5092144;28;19924;-62
2023/09/15 11:26:11;;;;;;;;;;;24.50;99.90;;;;;;5092079;28;19963;-62
2023/09/15 11:28:37;;;;;;;;;;;24.70;99.80;;;;;;5091898;28;20069;-63
2023/09/15 11:31:07;;;;;;;;;;;24.80;99.90;;;;;;5091888;28;19920;-62
2023/09/15 11:33:32;;;;;;;;;;;24.60;99.90;;;;;;5073684;28;19927;-63
2023/09/15 11:35:59;;;;;;;;;;;25.00;99.90;;;;;;5091999;28;19920;-63
2023/09/15 11:38:26;;;;;;;;;;;25.20;99.90;;;;;;5091756;28;19924;-64
2023/09/15 11:40:52;;;;;;;;;;;25.50;99.90;;;;;;5091732;28;19920;-62
2023/09/15 11:43:22;;;;;;;;;;;25.40;99.90;;;;;;5087350;28;19927;-62
2023/09/15 11:45:48;;;;;;;;;;;25.60;99.90;;;;;;5053714;28;19932;-63
2023/09/15 11:48:14;;;;;;;;;;;25.30;99.40;;;;;;5053217;28;19951;-62
2023/09/15 11:50:40;;;;;;;;;;;25.40;99.90;;;;;;5071485;28;19977;-64
2023/09/15 11:53:05;;;;;;;;;;;25.40;99.50;;;;;;5071597;28;19920;-63
2023/09/15 11:55:31;;;;;;;;;;;25.30;99.30;;;;;;5071416;28;19920;-62
2023/09/15 11:57:57;;;;;;;;;;;25.00;99.80;;;;;;5071430;28;19924;-63
2023/09/15 12:00:30;;;;;;;;;;;25.10;99.90;;;;;;5071400;28;19924;-62
2023/09/15 12:02:56;;;;;;;;;;;24.90;99.90;;;;;;5071438;28;19921;-63
2023/09/15 12:05:22;;;;;;;;;;;24.70;99.90;;;;;;5071661;28;20023;-61
2023/09/15 12:07:48;;;;;;;;;;;24.70;99.90;;;;;;5071469;28;20309;-63
2023/09/15 12:10:17;;;;;;;;;;;24.50;99.90;;;;;;5053311;28;19920;-63
2023/09/15 12:12:44;;;;;;;;;;;24.70;99.90;;;;;;5075117;28;19927;-63
2023/09/15 12:15:10;;;;;;;;;;;24.50;99.90;;;;;;5075282;28;19921;-62
2023/09/15 12:17:39;;;;;;;;;;;24.40;99.90;;;;;;5075170;28;19931;-63
2023/09/15 12:20:07;;;;;;;;;;;24.20;99.90;;;;;;5075015;28;20339;-62
2023/09/15 12:22:34;;;;;;;;;;;24.20;99.90;;;;;;5075021;28;20007;-63
2023/09/15 12:25:00;;;;;;;;;;;24.00;99.90;;;;;;5075033;28;20048;-64
2023/09/15 12:27:26;;;;;;;;;;;24.30;99.90;;;;;;5074750;28;19928;-62
2023/09/15 12:29:53;;;;;;;;;;;24.40;99.90;;;;;;5075191;28;20007;-63
2023/09/15 12:32:26;;;;;;;;;;;24.40;99.90;;;;;;5074768;28;19920;-63
2023/09/15 12:34:53;;;;;;;;;;;24.40;99.90;;;;;;5057065;28;19920;-63
2023/09/15 12:37:18;;;;;;;;;;;24.20;99.90;;;;;;5056747;28;20418;-62
2023/09/15 12:39:44;;;;;;;;;;;24.00;99.90;;;;;;5074877;28;20009;-62
2023/09/15 12:42:09;;;;;;;;;;;24.20;99.90;;;;;;5074735;28;19999;-63
2023/09/15 12:44:35;;;;;;;;;;;24.00;99.90;;;;;;5074806;28;19920;-62
2023/09/15 12:47:03;;;;;;;;;;;23.90;99.90;;;;;;5074691;28;20277;-63
2023/09/15 12:49:29;;;;;;;;;;;24.00;99.90;;;;;;5074816;28;19927;-62
2023/09/15 12:51:54;;;;;;;;;;;24.00;99.90;;;;;;5074485;28;19920;-62
2023/09/15 12:54:22;;;;;;;;;;;24.00;99.90;;;;;;5074557;28;19920;-62
2023/09/15 12:56:52;;;;;;;;;;;23.90;99.90;;;;;;5074469;28;19920;-62
2023/09/15 12:59:21;;;;;;;;;;;23.90;99.90;;;;;;5056355;28;19924;-62
2023/09/15 13:01:47;;;;;;;;;;;23.80;99.90;;;;;;5076437;28;19920;-62
2023/09/15 13:04:13;;;;;;;;;;;23.50;99.90;;;;;;5095380;28;19973;-62
2023/09/15 13:06:39;;;;;;;;;;;23.30;99.90;;;;;;5095744;28;19926;-62
2023/09/15 13:09:05;;;;;;;;;;;23.30;99.90;;;;;;5078333;28;19985;-63
2023/09/15 13:11:31;;;;;;;;;;;23.30;99.90;;;;;;5077067;28;19920;-63
2023/09/15 13:13:57;;;;;;;;;;;23.40;99.90;;;;;;5094558;28;20011;-62
2023/09/15 13:16:22;;;;;;;;;;;23.30;99.90;;;;;;5094576;28;19995;-62
2023/09/15 13:18:48;;;;;;;;;;;23.40;99.90;;;;;;5084659;28;19924;-62
2023/09/15 13:21:13;;;;;;;;;;;23.50;99.90;;;;;;5073600;28;19927;-62
2023/09/15 13:23:39;;;;;;;;;;;23.60;99.90;;;;;;5093749;28;19924;-62
2023/09/15 13:26:05;;;;;;;;;;;23.70;99.90;;;;;;5076356;28;19989;-62
2023/09/15 13:28:33;;;;;;;;;;;23.60;99.90;;;;;;5094401;28;20011;-63
2023/09/15 13:31:00;;;;;;;;;;;23.50;99.90;;;;;;5084792;28;20788;-62
2023/09/15 13:33:27;;;;;;;;;;;23.60;99.90;;;;;;5093848;28;19924;-63
2023/09/15 13:35:52;;;;;;;;;;;23.60;99.90;;;;;;5084649;28;19979;-63
2023/09/15 13:38:19;;;;;;;;;;;23.50;99.90;;;;;;5054803;28;20298;-62
2023/09/15 13:40:44;;;;;;;;;;;23.40;99.90;;;;;;5065041;28;20302;-62
2023/09/15 13:43:10;;;;;;;;;;;23.40;99.90;;;;;;5049021;28;19920;-62
2023/09/15 13:45:36;;;;;;;;;;;23.40;99.90;;;;;;5071921;28;19927;-62
2023/09/15 13:48:01;;;;;;;;;;;23.20;99.90;;;;;;5071809;28;19924;-62
2023/09/15 13:50:27;;;;;;;;;;;23.20;99.90;;;;;;5071370;28;19924;-63
2023/09/15 13:52:52;;;;;;;;;;;23.20;99.90;;;;;;5067169;28;19974;-62
2023/09/15 13:55:18;;;;;;;;;;;23.20;99.90;;;;;;5070122;28;20278;-64
2023/09/15 13:57:43;;;;;;;;;;;23.10;99.90;;;;;;5071490;28;19925;-63
2023/09/15 14:00:09;;;;;;;;;;;23.10;99.90;;;;;;5072042;28;20027;-62
2023/09/15 14:02:35;;;;;;;;;;;23.10;99.90;;;;;;5070594;28;20003;-63
2023/09/15 14:05:03;;;;;;;;;;;23.00;99.90;;;;;;5052670;28;19920;-63
2023/09/15 14:07:29;;;;;;;;;;;23.00;99.90;;;;;;5070878;28;20421;-63
2023/09/15 14:09:54;;;;;;;;;;;23.00;99.90;;;;;;5045604;28;19921;-63
2023/09/15 14:12:20;;;;;;;;;;;23.00;99.90;;;;;;5069394;28;19921;-61